Time;durP1;ratioP1;P1;durP2;ratioP2;P2;SDS_P1;SDS_P2;PMS_P1;PMS_P2;Temp;Humidity;BMP_temperature;BMP_pressure;BME280_temperature;BME280_humidity;BME280_pressure;Samples;Min_cycle;Max_cycle;Signal;HPM_P1;HPM_P2
2023/04/24 00:00:17;;;;;;;1.77;0.50;;;12.40;99.90;;;;;;5077151;28;20107;-70
2023/04/24 00:02:46;;;;;;;3.17;0.60;;;12.30;99.90;;;;;;5077252;28;20021;-70
2023/04/24 00:05:14;;;;;;;0.77;0.68;;;12.20;99.90;;;;;;5077764;28;20029;-70
2023/04/24 00:07:44;;;;;;;2.17;0.98;;;12.20;99.90;;;;;;5077562;28;20127;-70
2023/04/24 00:10:09;;;;;;;0.73;0.60;;;12.10;99.90;;;;;;5077783;28;20025;-70
2023/04/24 00:12:35;;;;;;;1.85;0.68;;;12.10;99.90;;;;;;5077329;28;20024;-70
2023/04/24 00:15:01;;;;;;;0.88;0.85;;;12.10;99.90;;;;;;5077517;28;20024;-70
2023/04/24 00:17:27;;;;;;;1.65;0.82;;;12.10;99.90;;;;;;5077538;28;20031;-70
2023/04/24 00:19:58;;;;;;;2.63;0.68;;;12.10;99.90;;;;;;5077063;28;20042;-70
2023/04/24 00:22:24;;;;;;;2.27;0.70;;;12.10;99.90;;;;;;5076602;28;20044;-70
2023/04/24 00:24:50;;;;;;;3.58;0.63;;;12.00;99.90;;;;;;5076735;28;20020;-70
2023/04/24 00:27:15;;;;;;;0.88;0.73;;;11.90;99.90;;;;;;5076870;28;20040;-70
2023/04/24 00:29:41;;;;;;;2.40;1.20;;;11.90;99.90;;;;;;5076801;28;20057;-70
2023/04/24 00:32:07;;;;;;;1.90;0.75;;;11.80;99.90;;;;;;5076779;28;20027;-70
2023/04/24 00:34:32;;;;;;;1.00;0.90;;;11.80;99.90;;;;;;5076408;28;20029;-70
2023/04/24 00:36:58;;;;;;;1.30;0.90;;;11.80;99.90;;;;;;5076796;28;20050;-70
2023/04/24 00:39:24;;;;;;;2.72;0.93;;;11.90;99.90;;;;;;5077276;28;20042;-71
2023/04/24 00:41:50;;;;;;;1.98;0.73;;;12.10;99.90;;;;;;5076397;28;20054;-70
2023/04/24 00:44:16;;;;;;;1.13;0.90;;;12.10;99.90;;;;;;5076534;28;20063;-70
2023/04/24 00:46:42;;;;;;;0.90;0.73;;;12.10;99.90;;;;;;5076147;28;20024;-70
2023/04/24 00:49:08;;;;;;;0.70;0.70;;;12.20;99.90;;;;;;5077102;28;20032;-70
2023/04/24 00:51:34;;;;;;;1.75;0.90;;;12.10;99.90;;;;;;5076239;28;20028;-70
2023/04/24 00:54:00;;;;;;;2.85;0.93;;;12.00;99.90;;;;;;5076369;28;20035;-70
2023/04/24 00:56:26;;;;;;;3.90;0.95;;;12.00;99.90;;;;;;5076583;28;20020;-70
2023/04/24 00:58:52;;;;;;;2.55;1.40;;;12.00;99.90;;;;;;5076401;28;20020;-70
2023/04/24 01:01:21;;;;;;;0.90;0.77;;;12.10;99.90;;;;;;5076213;28;20081;-70
2023/04/24 01:03:50;;;;;;;1.55;0.85;;;12.10;99.90;;;;;;5076115;28;20020;-70
2023/04/24 01:06:16;;;;;;;1.65;0.80;;;12.10;99.90;;;;;;5076361;28;20119;-70
2023/04/24 01:08:43;;;;;;;1.50;0.70;;;12.00;99.90;;;;;;5076479;28;20117;-71
2023/04/24 01:11:08;;;;;;;0.88;0.60;;;12.00;99.90;;;;;;5076020;28;20024;-70
2023/04/24 01:13:34;;;;;;;1.30;0.90;;;11.90;99.90;;;;;;5076022;28;20035;-70
2023/04/24 01:16:00;;;;;;;3.55;0.95;;;11.80;99.90;;;;;;5077044;28;20047;-70
2023/04/24 01:18:27;;;;;;;0.80;0.80;;;11.70;99.90;;;;;;5076820;28;20021;-70
2023/04/24 01:20:56;;;;;;;1.77;1.23;;;11.80;99.90;;;;;;5076155;28;20017;-70
2023/04/24 01:23:22;;;;;;;1.95;0.82;;;11.80;99.90;;;;;;5076277;28;20027;-70
2023/04/24 01:25:49;;;;;;;2.85;1.10;;;11.90;99.90;;;;;;5076044;28;20051;-70
2023/04/24 01:28:15;;;;;;;1.42;0.98;;;11.90;99.90;;;;;;5076249;28;20042;-70
2023/04/24 01:30:41;;;;;;;2.15;1.10;;;12.00;99.90;;;;;;5075869;28;20078;-70
2023/04/24 01:33:07;;;;;;;2.22;0.85;;;12.00;99.90;;;;;;5076054;28;20107;-70
2023/04/24 01:35:33;;;;;;;1.92;0.80;;;12.10;99.90;;;;;;5076637;28;20028;-70
2023/04/24 01:37:58;;;;;;;1.80;0.93;;;12.00;99.90;;;;;;5076247;28;20024;-70
2023/04/24 01:40:24;;;;;;;4.40;0.93;;;12.00;99.90;;;;;;5076910;28;20029;-70
2023/04/24 01:42:50;;;;;;;2.83;1.20;;;12.00;99.90;;;;;;5075818;28;20024;-70
2023/04/24 01:45:16;;;;;;;0.70;0.70;;;12.00;99.90;;;;;;5075806;28;20021;-71
2023/04/24 01:47:42;;;;;;;1.30;0.82;;;12.10;99.90;;;;;;5076030;28;20078;-71
2023/04/24 01:50:08;;;;;;;2.50;0.90;;;12.10;99.90;;;;;;5075758;28;20031;-70
2023/04/24 01:52:35;;;;;;;4.97;0.75;;;12.10;99.90;;;;;;5075785;28;20024;-70
2023/04/24 01:55:00;;;;;;;1.75;0.90;;;12.10;99.90;;;;;;5075566;28;20025;-70
2023/04/24 01:57:26;;;;;;;0.85;0.80;;;12.10;99.90;;;;;;5076011;28;20027;-70
2023/04/24 01:59:52;;;;;;;3.50;1.08;;;12.10;99.90;;;;;;5075576;28;20021;-70
2023/04/24 02:02:17;;;;;;;7.95;1.20;;;12.00;99.90;;;;;;5075919;28;20025;-70
2023/04/24 02:04:43;;;;;;;4.07;1.23;;;12.00;99.90;;;;;;5076388;28;20024;-70
2023/04/24 02:07:09;;;;;;;3.63;1.40;;;11.80;99.90;;;;;;5075838;28;20040;-71
2023/04/24 02:09:34;;;;;;;2.58;1.50;;;11.80;99.90;;;;;;5076641;28;20040;-71
2023/04/24 02:12:00;;;;;;;2.53;1.20;;;11.70;99.90;;;;;;5075698;28;20078;-71
2023/04/24 02:14:26;;;;;;;2.33;1.70;;;11.70;99.90;;;;;;5075456;28;20025;-71
2023/04/24 02:16:51;;;;;;;2.05;1.75;;;11.60;99.90;;;;;;5075759;28;20082;-71
2023/04/24 02:19:17;;;;;;;3.22;1.60;;;11.60;99.90;;;;;;5078006;28;20023;-70
2023/04/24 02:21:43;;;;;;;3.22;1.50;;;11.60;99.90;;;;;;5079108;28;20042;-71
2023/04/24 02:24:08;;;;;;;8.45;2.15;;;11.50;99.90;;;;;;5079029;28;20046;-71
2023/04/24 02:26:34;;;;;;;2.97;2.10;;;11.60;99.90;;;;;;5080068;28;20063;-70
2023/04/24 02:28:59;;;;;;;5.00;1.98;;;11.60;99.90;;;;;;5079941;28;20031;-70
2023/04/24 02:31:25;;;;;;;2.90;1.90;;;11.60;99.90;;;;;;5079222;28;20088;-70
2023/04/24 02:33:51;;;;;;;6.82;2.30;;;11.60;99.90;;;;;;5079313;28;20029;-71
2023/04/24 02:36:16;;;;;;;4.28;1.92;;;11.50;99.90;;;;;;5079582;28;20047;-71
2023/04/24 02:38:42;;;;;;;8.05;2.38;;;11.50;99.90;;;;;;5079064;28;20029;-70
2023/04/24 02:41:07;;;;;;;5.22;2.10;;;11.40;99.90;;;;;;5079810;28;20021;-70
2023/04/24 02:43:33;;;;;;;2.95;1.90;;;11.40;99.90;;;;;;5078622;28;20127;-71
2023/04/24 02:45:59;;;;;;;5.60;2.05;;;11.30;99.90;;;;;;5079691;28;20181;-71
2023/04/24 02:48:25;;;;;;;4.03;2.15;;;11.40;99.90;;;;;;5078959;28;20021;-71
2023/04/24 02:50:50;;;;;;;2.78;1.90;;;11.40;99.90;;;;;;5078912;28;20025;-70
2023/04/24 02:53:16;;;;;;;4.10;2.10;;;11.40;99.90;;;;;;5078318;28;20051;-71
2023/04/24 02:55:42;;;;;;;4.90;1.98;;;11.50;99.90;;;;;;5078350;28;20023;-71
2023/04/24 02:58:07;;;;;;;3.33;2.13;;;11.50;99.90;;;;;;5078837;28;20027;-71
2023/04/24 03:00:33;;;;;;;3.17;1.20;;;11.50;99.90;;;;;;5078394;28;20020;-71
2023/04/24 03:02:59;;;;;;;1.75;1.30;;;11.50;99.90;;;;;;5078695;28;20025;-71
2023/04/24 03:05:24;;;;;;;2.38;1.50;;;11.40;99.90;;;;;;5078394;28;20060;-71
2023/04/24 03:07:52;;;;;;;3.60;1.02;;;11.40;99.90;;;;;;5078535;28;20025;-71
2023/04/24 03:10:18;;;;;;;3.90;1.10;;;11.40;99.90;;;;;;5079035;28;20024;-71
2023/04/24 03:12:43;;;;;;;2.67;1.20;;;11.40;99.90;;;;;;5078413;28;20028;-70
2023/04/24 03:15:09;;;;;;;2.30;0.98;;;11.30;99.90;;;;;;5078537;28;20035;-70
2023/04/24 03:17:35;;;;;;;3.22;1.10;;;11.30;99.90;;;;;;5078800;28;20028;-70
2023/04/24 03:20:01;;;;;;;1.70;0.80;;;11.20;99.90;;;;;;5078202;28;20061;-70
2023/04/24 03:22:26;;;;;;;2.78;0.95;;;11.10;99.90;;;;;;5077908;28;20025;-71
2023/04/24 03:24:52;;;;;;;1.10;0.68;;;11.00;99.90;;;;;;5078065;28;20021;-70
2023/04/24 03:27:18;;;;;;;2.35;0.90;;;11.00;99.90;;;;;;5078135;28;20032;-70
2023/04/24 03:29:43;;;;;;;2.17;0.80;;;11.00;99.90;;;;;;5077627;28;20372;-71
2023/04/24 03:32:09;;;;;;;0.77;0.60;;;10.90;99.90;;;;;;5077892;28;20051;-71
2023/04/24 03:34:34;;;;;;;0.98;0.75;;;10.90;99.90;;;;;;5078517;28;20043;-70
2023/04/24 03:37:00;;;;;;;0.80;0.70;;;10.80;99.90;;;;;;5077937;28;20020;-70
2023/04/24 03:39:25;;;;;;;5.95;0.95;;;10.80;99.90;;;;;;5077739;28;20070;-70
2023/04/24 03:41:51;;;;;;;1.27;0.60;;;10.80;99.90;;;;;;5077587;28;20020;-71
2023/04/24 03:44:17;;;;;;;0.95;0.70;;;10.80;99.90;;;;;;5078046;28;20081;-70
2023/04/24 03:46:42;;;;;;;1.05;0.60;;;10.80;99.90;;;;;;5077543;28;20051;-70
2023/04/24 03:49:08;;;;;;;3.00;0.75;;;10.80;99.90;;;;;;5077593;28;20063;-70
2023/04/24 03:51:33;;;;;;;0.70;0.60;;;10.80;99.90;;;;;;5077768;28;20036;-71
2023/04/24 03:53:59;;;;;;;1.48;0.68;;;10.80;99.90;;;;;;5077410;28;20028;-71
2023/04/24 03:56:24;;;;;;;0.70;0.70;;;10.80;99.90;;;;;;5077561;28;20028;-70
2023/04/24 03:58:50;;;;;;;1.20;1.00;;;10.70;99.90;;;;;;5077315;28;20020;-70
2023/04/24 04:01:16;;;;;;;2.38;0.63;;;10.70;99.90;;;;;;5078161;28;20044;-71
2023/04/24 04:03:41;;;;;;;3.22;0.93;;;10.80;99.90;;;;;;5077305;28;20052;-71
2023/04/24 04:06:07;;;;;;;1.95;0.85;;;10.80;99.90;;;;;;5077280;28;20025;-71
2023/04/24 04:08:32;;;;;;;1.17;0.73;;;10.70;99.90;;;;;;5077218;28;20056;-71
2023/04/24 04:10:58;;;;;;;0.98;0.77;;;10.70;99.90;;;;;;5077193;28;20031;-71
2023/04/24 04:13:24;;;;;;;1.35;0.70;;;10.70;99.90;;;;;;5077031;28;20027;-70
2023/04/24 04:15:49;;;;;;;1.30;1.10;;;10.60;99.90;;;;;;5076784;28;20025;-70
2023/04/24 04:18:15;;;;;;;2.00;0.82;;;10.60;99.90;;;;;;5076666;28;20044;-70
2023/04/24 04:20:40;;;;;;;0.75;0.75;;;10.50;99.90;;;;;;5077088;28;20025;-70
2023/04/24 04:23:06;;;;;;;1.85;0.90;;;10.50;99.90;;;;;;5077705;28;20017;-70
2023/04/24 04:25:32;;;;;;;2.05;0.80;;;10.40;99.90;;;;;;5077020;28;20033;-70
2023/04/24 04:27:59;;;;;;;1.25;1.00;;;10.40;99.90;;;;;;5077086;28;20016;-70
2023/04/24 04:30:25;;;;;;;1.42;1.27;;;10.40;99.90;;;;;;5076894;28;20032;-71
2023/04/24 04:32:51;;;;;;;1.73;1.00;;;10.40;99.90;;;;;;5076760;28;20107;-71
2023/04/24 04:35:16;;;;;;;1.20;1.08;;;10.50;99.90;;;;;;5076598;28;20150;-71
2023/04/24 04:37:42;;;;;;;1.80;1.00;;;10.50;99.90;;;;;;5076498;28;20021;-71
2023/04/24 04:40:11;;;;;;;8.10;1.05;;;10.50;99.90;;;;;;5076250;28;20035;-71
2023/04/24 04:42:40;;;;;;;3.15;1.20;;;10.50;99.90;;;;;;5076366;28;20035;-71
2023/04/24 04:45:09;;;;;;;2.45;1.05;;;10.50;99.90;;;;;;5076763;28;20025;-70
2023/04/24 04:47:34;;;;;;;1.55;1.00;;;10.50;99.90;;;;;;5076825;28;20025;-70
2023/04/24 04:50:00;;;;;;;1.15;1.00;;;10.40;99.90;;;;;;5076259;28;20035;-70
2023/04/24 04:52:26;;;;;;;0.98;0.98;;;10.40;99.90;;;;;;5076369;28;20043;-70
2023/04/24 04:54:52;;;;;;;1.33;0.98;;;10.40;99.90;;;;;;5076530;28;20021;-70
2023/04/24 04:57:17;;;;;;;2.17;1.10;;;10.40;99.90;;;;;;5076513;28;20071;-71
2023/04/24 04:59:43;;;;;;;0.80;0.77;;;10.40;99.90;;;;;;5076546;28;20027;-70
2023/04/24 05:02:09;;;;;;;1.42;1.08;;;10.40;99.90;;;;;;5076196;28;20017;-70
2023/04/24 05:04:34;;;;;;;1.15;1.00;;;10.40;99.90;;;;;;5077211;28;20029;-70
2023/04/24 05:07:00;;;;;;;3.75;1.55;;;10.40;99.90;;;;;;5076226;28;20021;-70
2023/04/24 05:09:27;;;;;;;1.45;1.20;;;10.40;99.90;;;;;;5076991;28;20025;-70
2023/04/24 05:11:53;;;;;;;2.80;1.35;;;10.40;99.90;;;;;;5076903;28;20029;-70
2023/04/24 05:14:18;;;;;;;2.38;1.48;;;10.30;99.90;;;;;;5075903;28;20025;-70
2023/04/24 05:16:44;;;;;;;2.70;1.63;;;10.20;99.90;;;;;;5076836;28;20024;-70
2023/04/24 05:19:11;;;;;;;3.97;1.80;;;10.10;99.90;;;;;;5075949;28;20044;-70
2023/04/24 05:21:37;;;;;;;3.45;1.60;;;10.10;99.90;;;;;;5076084;28;20023;-70
2023/04/24 05:24:02;;;;;;;4.53;1.50;;;10.10;99.90;;;;;;5075870;28;20028;-70
2023/04/24 05:26:28;;;;;;;3.13;1.55;;;10.10;99.90;;;;;;5076239;28;20028;-70
2023/04/24 05:28:54;;;;;;;3.13;1.30;;;10.00;99.90;;;;;;5075927;28;20024;-71
2023/04/24 05:31:19;;;;;;;3.92;1.42;;;10.00;99.90;;;;;;5076050;28;20032;-71
2023/04/24 05:33:45;;;;;;;2.67;1.48;;;10.00;99.90;;;;;;5075753;28;20032;-71
2023/04/24 05:36:10;;;;;;;3.38;1.45;;;10.00;99.90;;;;;;5075894;28;20027;-70
2023/04/24 05:38:36;;;;;;;2.28;1.88;;;10.00;99.90;;;;;;5076230;28;20025;-71
2023/04/24 05:41:01;;;;;;;5.43;1.88;;;10.00;99.90;;;;;;5075855;28;20017;-71
2023/04/24 05:43:27;;;;;;;4.53;1.70;;;10.00;99.90;;;;;;5076372;28;20033;-71
2023/04/24 05:45:53;;;;;;;2.58;1.52;;;10.00;99.90;;;;;;5076123;28;20032;-72
2023/04/24 05:48:19;;;;;;;1.92;1.50;;;10.10;99.90;;;;;;5075884;28;20021;-72
2023/04/24 05:50:45;;;;;;;2.30;1.88;;;10.10;99.90;;;;;;5075887;28;20020;-72
2023/04/24 05:53:10;;;;;;;3.42;1.95;;;10.20;99.90;;;;;;5077813;28;20020;-72
2023/04/24 05:55:36;;;;;;;2.53;1.80;;;10.20;99.90;;;;;;5079758;28;20025;-72
2023/04/24 05:58:02;;;;;;;2.50;1.50;;;10.20;99.90;;;;;;5080147;28;20017;-72
2023/04/24 06:00:28;;;;;;;4.97;1.52;;;10.20;99.90;;;;;;5079667;28;20060;-72
2023/04/24 06:02:54;;;;;;;5.13;1.52;;;10.20;99.90;;;;;;5080004;28;20039;-72
2023/04/24 06:05:19;;;;;;;4.30;1.27;;;10.30;99.90;;;;;;5080169;28;20122;-72
2023/04/24 06:07:45;;;;;;;2.60;1.60;;;10.30;99.90;;;;;;5080130;28;20035;-72
2023/04/24 06:10:11;;;;;;;2.50;1.60;;;10.40;99.90;;;;;;5079523;28;20027;-72
2023/04/24 06:12:37;;;;;;;3.80;1.50;;;10.40;99.90;;;;;;5080187;28;20055;-72
2023/04/24 06:15:03;;;;;;;2.30;1.30;;;10.30;99.90;;;;;;5079520;28;20033;-72
2023/04/24 06:17:29;;;;;;;3.38;1.63;;;10.30;99.90;;;;;;5079774;28;20025;-72
2023/04/24 06:19:54;;;;;;;1.75;1.02;;;10.20;99.90;;;;;;5078984;28;20028;-72
2023/04/24 06:22:20;;;;;;;2.25;1.70;;;10.30;99.90;;;;;;5079789;28;20021;-72
2023/04/24 06:24:47;;;;;;;3.38;1.73;;;10.30;99.90;;;;;;5078913;28;20022;-72
2023/04/24 06:27:12;;;;;;;1.88;1.45;;;10.30;99.90;;;;;;5079188;28;20028;-72
2023/04/24 06:29:38;;;;;;;2.42;1.77;;;10.30;99.90;;;;;;5079355;28;20025;-72
2023/04/24 06:32:03;;;;;;;2.75;1.77;;;10.30;99.90;;;;;;5079026;28;20052;-72
2023/04/24 06:34:30;;;;;;;4.10;1.92;;;10.30;99.90;;;;;;5079157;28;20035;-72
2023/04/24 06:36:56;;;;;;;2.90;1.70;;;10.30;99.90;;;;;;5078803;28;20021;-72
2023/04/24 06:39:21;;;;;;;6.95;3.08;;;10.30;99.90;;;;;;5079566;28;20040;-72
2023/04/24 06:41:47;;;;;;;4.32;2.50;;;10.30;99.90;;;;;;5078822;28;20031;-72
2023/04/24 06:44:14;;;;;;;6.20;2.97;;;10.20;99.90;;;;;;5079050;28;20035;-72
2023/04/24 06:46:40;;;;;;;4.28;2.72;;;10.20;99.90;;;;;;5078565;28;20119;-72
2023/04/24 06:49:06;;;;;;;4.35;2.45;;;10.30;99.90;;;;;;5078510;28;20111;-72
2023/04/24 06:51:32;;;;;;;6.55;2.70;;;10.50;99.90;;;;;;5078856;28;20059;-72
2023/04/24 06:53:58;;;;;;;5.72;2.17;;;10.60;99.90;;;;;;5078672;28;20040;-72
2023/04/24 06:56:25;;;;;;;5.55;2.13;;;10.60;99.90;;;;;;5078836;28;20048;-72
2023/04/24 06:58:51;;;;;;;3.92;2.17;;;10.60;99.90;;;;;;5079100;28;20077;-72
2023/04/24 07:01:17;;;;;;;4.43;2.72;;;10.70;99.90;;;;;;5079124;28;20024;-72
2023/04/24 07:03:42;;;;;;;4.45;2.53;;;10.60;99.90;;;;;;5077573;28;20050;-72
2023/04/24 07:06:10;;;;;;;3.72;2.83;;;10.70;99.90;;;;;;5078579;28;20032;-72
2023/04/24 07:08:36;;;;;;;5.82;2.58;;;10.70;99.90;;;;;;5078197;28;20170;-72
2023/04/24 07:11:02;;;;;;;7.30;2.88;;;10.70;99.90;;;;;;5078618;28;20091;-72
2023/04/24 07:13:28;;;;;;;4.30;2.25;;;10.80;99.90;;;;;;5078492;28;20048;-72
2023/04/24 07:15:55;;;;;;;3.42;2.15;;;10.90;99.90;;;;;;5078240;28;20016;-72
2023/04/24 07:18:21;;;;;;;5.35;2.10;;;10.90;99.90;;;;;;5078934;28;20078;-72
2023/04/24 07:20:47;;;;;;;7.07;2.75;;;11.00;99.90;;;;;;5078503;28;20029;-72
2023/04/24 07:23:13;;;;;;;3.50;2.42;;;11.10;99.90;;;;;;5077975;28;20024;-72
2023/04/24 07:25:39;;;;;;;3.50;2.17;;;11.20;99.90;;;;;;5077752;28;20027;-72
2023/04/24 07:28:05;;;;;;;4.53;3.10;;;11.20;99.90;;;;;;5078139;28;20028;-72
2023/04/24 07:30:32;;;;;;;4.75;2.55;;;11.20;99.90;;;;;;5077882;28;20031;-72
2023/04/24 07:32:58;;;;;;;4.55;3.10;;;11.30;99.90;;;;;;5077655;28;20024;-72
2023/04/24 07:35:25;;;;;;;8.25;3.00;;;11.30;99.90;;;;;;5078107;28;20027;-72
2023/04/24 07:37:53;;;;;;;4.05;3.00;;;11.40;99.90;;;;;;5078306;28;20054;-73
2023/04/24 07:40:20;;;;;;;3.50;2.63;;;11.40;99.90;;;;;;5077871;28;20024;-73
2023/04/24 07:42:48;;;;;;;5.20;2.85;;;11.50;99.90;;;;;;5078110;28;20032;-72
2023/04/24 07:45:14;;;;;;;5.82;3.28;;;11.50;99.90;;;;;;5077533;28;20020;-72
2023/04/24 07:47:42;;;;;;;4.75;2.80;;;11.50;99.90;;;;;;5077473;28;20020;-72
2023/04/24 07:50:08;;;;;;;3.83;2.72;;;11.50;99.90;;;;;;5077390;28;20028;-72
2023/04/24 07:52:34;;;;;;;4.32;2.58;;;11.60;99.90;;;;;;5077912;28;20120;-72
2023/04/24 07:55:01;;;;;;;4.53;2.33;;;11.50;99.90;;;;;;5077571;28;20024;-72
2023/04/24 07:57:27;;;;;;;6.90;2.55;;;11.50;99.90;;;;;;5077532;28;20021;-72
2023/04/24 07:59:53;;;;;;;4.68;2.28;;;11.50;99.90;;;;;;5077245;28;20115;-72
2023/04/24 08:02:18;;;;;;;8.13;2.53;;;11.50;99.90;;;;;;5077136;28;20052;-72
2023/04/24 08:04:44;;;;;;;3.45;2.30;;;11.60;99.90;;;;;;5077074;28;20028;-72
2023/04/24 08:07:09;;;;;;;4.40;2.70;;;11.70;99.90;;;;;;5077147;28;20024;-72
2023/04/24 08:09:35;;;;;;;4.68;2.33;;;11.80;99.90;;;;;;5077518;28;20031;-72
2023/04/24 08:12:02;;;;;;;3.40;2.33;;;12.00;99.90;;;;;;5076777;28;20051;-72
2023/04/24 08:14:27;;;;;;;3.08;2.60;;;12.00;99.90;;;;;;5077991;28;20024;-73
2023/04/24 08:16:56;;;;;;;5.40;2.05;;;12.20;99.90;;;;;;5077111;28;20025;-73
2023/04/24 08:19:22;;;;;;;4.32;2.35;;;12.30;99.90;;;;;;5077227;28;20020;-72
2023/04/24 08:21:47;;;;;;;3.42;2.35;;;12.20;99.90;;;;;;5077538;28;20031;-72
2023/04/24 08:24:13;;;;;;;5.53;2.65;;;12.20;99.90;;;;;;5076686;28;20078;-71
2023/04/24 08:26:39;;;;;;;2.95;2.13;;;12.20;99.90;;;;;;5077038;28;20034;-71
2023/04/24 08:29:06;;;;;;;3.67;2.33;;;12.10;99.90;;;;;;5077435;28;20025;-71
2023/04/24 08:31:32;;;;;;;2.80;1.60;;;12.00;99.90;;;;;;5076992;28;20021;-71
2023/04/24 08:33:58;;;;;;;4.15;2.05;;;12.10;99.90;;;;;;5076702;28;20035;-71
2023/04/24 08:36:24;;;;;;;3.50;2.50;;;12.10;99.90;;;;;;5076896;28;20073;-71
2023/04/24 08:38:50;;;;;;;2.60;1.67;;;12.10;99.90;;;;;;5076508;28;20020;-71
2023/04/24 08:41:17;;;;;;;3.22;2.22;;;12.10;99.90;;;;;;5076409;28;20032;-71
2023/04/24 08:43:44;;;;;;;4.53;2.17;;;12.10;99.90;;;;;;5076520;28;20051;-71
2023/04/24 08:46:11;;;;;;;6.55;1.80;;;12.10;99.90;;;;;;5077183;28;20020;-71
2023/04/24 08:48:37;;;;;;;3.75;1.70;;;12.00;99.90;;;;;;5076896;28;20021;-71
2023/04/24 08:51:07;;;;;;;3.40;1.98;;;11.90;99.90;;;;;;5076411;28;20020;-71
2023/04/24 08:53:34;;;;;;;3.75;2.20;;;11.90;99.90;;;;;;5075891;28;20131;-71
2023/04/24 08:56:01;;;;;;;6.55;2.00;;;11.80;99.90;;;;;;5077196;28;20104;-71
2023/04/24 08:58:27;;;;;;;2.85;2.17;;;11.80;99.90;;;;;;5076250;28;20024;-71
2023/04/24 09:00:57;;;;;;;3.78;1.80;;;11.70;99.90;;;;;;5076233;28;20048;-71
2023/04/24 09:03:23;;;;;;;4.65;2.30;;;11.70;99.90;;;;;;5076561;28;20028;-71
2023/04/24 09:05:50;;;;;;;5.10;1.80;;;11.70;99.90;;;;;;5076786;28;20021;-71
2023/04/24 09:08:19;;;;;;;3.20;2.05;;;11.70;99.90;;;;;;5076716;28;20115;-70
2023/04/24 09:10:44;;;;;;;3.78;1.80;;;11.70;99.90;;;;;;5076977;28;20021;-70
2023/04/24 09:13:11;;;;;;;2.88;2.03;;;11.60;99.90;;;;;;5076699;28;20028;-71
2023/04/24 09:15:37;;;;;;;5.25;1.88;;;11.60;99.90;;;;;;5076642;28;20092;-70
2023/04/24 09:18:04;;;;;;;6.07;2.13;;;11.60;99.90;;;;;;5076481;28;20040;-70
2023/04/24 09:20:30;;;;;;;2.88;2.08;;;11.60;99.90;;;;;;5076128;28;20032;-71
2023/04/24 09:22:57;;;;;;;5.07;1.95;;;11.70;99.90;;;;;;5077112;28;20017;-71
2023/04/24 09:25:33;;;;;;;2.50;1.70;;;11.50;99.90;;;;;;5076188;28;20024;-71
2023/04/24 09:28:04;;;;;;;2.53;1.95;;;11.60;99.90;;;;;;5078987;28;20084;-71
2023/04/24 09:30:30;;;;;;;6.73;1.63;;;11.70;99.90;;;;;;5080607;28;20115;-71
2023/04/24 09:33:12;;;;;;;2.55;2.05;;;11.80;99.90;;;;;;5079874;28;20052;-71
2023/04/24 09:35:41;;;;;;;2.38;1.60;;;11.80;99.90;;;;;;5079760;28;20031;-71
2023/04/24 09:38:07;;;;;;;2.42;1.45;;;11.80;99.90;;;;;;5079854;28;20017;-71
2023/04/24 09:40:34;;;;;;;3.60;1.80;;;11.70;99.90;;;;;;5080783;28;20026;-71
2023/04/24 09:43:02;;;;;;;2.67;1.60;;;11.70;99.90;;;;;;5079804;28;20088;-71
2023/04/24 09:45:34;;;;;;;1.95;1.45;;;11.80;99.90;;;;;;5080067;28;20021;-71
2023/04/24 09:48:00;;;;;;;3.38;1.30;;;11.80;99.90;;;;;;5079770;28;20028;-71
2023/04/24 09:50:26;;;;;;;1.90;1.38;;;11.80;99.90;;;;;;5080044;28;20035;-71
2023/04/24 09:52:58;;;;;;;2.50;1.42;;;11.90;99.90;;;;;;5079878;28;20088;-71
2023/04/24 09:55:25;;;;;;;3.00;2.05;;;11.80;99.90;;;;;;5079781;28;20028;-71
2023/04/24 09:57:53;;;;;;;3.92;1.70;;;11.80;99.90;;;;;;5079659;28;20063;-71
2023/04/24 10:00:22;;;;;;;6.40;2.10;;;11.60;99.90;;;;;;5079793;28;20017;-71
2023/04/24 10:02:55;;;;;;;2.60;1.95;;;11.30;99.90;;;;;;5080123;28;20024;-72
2023/04/24 10:05:24;;;;;;;3.67;2.38;;;11.20;99.90;;;;;;5079744;28;20063;-72
2023/04/24 10:07:50;;;;;;;2.60;1.88;;;11.20;99.90;;;;;;5079717;28;20074;-72
2023/04/24 10:10:16;;;;;;;4.65;2.30;;;11.20;99.90;;;;;;5079365;28;20025;-71
2023/04/24 10:12:43;;;;;;;2.53;1.40;;;11.20;99.90;;;;;;5079422;28;20031;-71
2023/04/24 10:15:12;;;;;;;2.67;1.58;;;11.20;99.90;;;;;;5079787;28;20082;-71
2023/04/24 10:17:38;;;;;;;2.50;1.27;;;11.20;99.90;;;;;;5079738;28;20088;-71
2023/04/24 10:20:06;;;;;;;3.10;1.70;;;11.20;99.90;;;;;;5079574;28;20054;-71
2023/04/24 10:22:32;;;;;;;1.98;1.75;;;11.20;99.90;;;;;;5079447;28;20024;-71
2023/04/24 10:24:59;;;;;;;4.93;2.25;;;11.10;99.90;;;;;;5078933;28;20028;-71
2023/04/24 10:27:26;;;;;;;2.03;1.30;;;11.10;99.90;;;;;;5079661;28;20024;-71
2023/04/24 10:29:53;;;;;;;1.05;0.80;;;11.10;99.90;;;;;;5079645;28;20040;-71
2023/04/24 10:32:18;;;;;;;1.52;1.08;;;11.10;99.90;;;;;;5078778;28;20031;-71
2023/04/24 10:34:44;;;;;;;1.10;0.73;;;11.20;99.90;;;;;;5078849;28;20028;-72
2023/04/24 10:37:10;;;;;;;2.78;0.63;;;11.20;99.90;;;;;;5079574;28;20017;-71
2023/04/24 10:39:37;;;;;;;1.45;0.70;;;11.30;99.90;;;;;;5078401;28;20055;-71
2023/04/24 10:42:15;;;;;;;0.80;0.50;;;11.40;99.90;;;;;;5079157;28;20020;-71
2023/04/24 10:44:40;;;;;;;1.05;0.55;;;11.40;99.90;;;;;;5079573;28;20044;-72
2023/04/24 10:47:13;;;;;;;0.88;0.60;;;11.40;99.90;;;;;;5078817;28;20029;-71
2023/04/24 10:49:39;;;;;;;3.20;0.70;;;11.40;99.90;;;;;;5079527;28;20025;-71
2023/04/24 10:52:05;;;;;;;0.82;0.50;;;11.50;99.90;;;;;;5078585;28;20031;-71
2023/04/24 10:54:44;;;;;;;1.85;0.68;;;11.50;99.90;;;;;;5078547;28;20028;-70
2023/04/24 10:57:20;;;;;;;0.70;0.50;;;11.40;99.90;;;;;;5078772;28;20069;-71
2023/04/24 10:59:47;;;;;;;0.47;0.47;;;11.40;99.90;;;;;;5079233;28;20078;-71
2023/04/24 11:02:17;;;;;;;0.90;0.57;;;11.30;99.90;;;;;;5078511;28;20028;-71
2023/04/24 11:04:43;;;;;;;0.90;0.55;;;11.30;99.90;;;;;;5078924;28;20021;-71
2023/04/24 11:07:10;;;;;;;2.08;0.63;;;11.30;99.90;;;;;;5078623;28;20028;-71
2023/04/24 11:09:36;;;;;;;0.22;0.22;;;11.30;99.90;;;;;;5078144;28;20064;-72
2023/04/24 11:12:13;;;;;;;0.35;0.30;;;11.30;99.90;;;;;;5078547;28;20051;-72
2023/04/24 11:14:58;;;;;;;1.02;0.30;;;11.20;99.90;;;;;;5078494;28;20029;-72
2023/04/24 11:17:37;;;;;;;0.30;0.30;;;11.20;99.90;;;;;;5078027;28;20024;-73
2023/04/24 11:20:11;;;;;;;0.38;0.38;;;11.30;99.90;;;;;;5078501;28;20021;-74
2023/04/24 11:22:41;;;;;;;0.20;0.20;;;11.40;99.90;;;;;;5078425;28;20066;-74
2023/04/24 11:25:08;;;;;;;0.52;0.20;;;11.50;99.90;;;;;;5081195;28;20123;-73
2023/04/24 11:27:46;;;;;;;0.63;0.20;;;11.60;99.90;;;;;;5077978;28;20028;-73
2023/04/24 11:30:11;;;;;;;0.35;0.30;;;11.70;99.90;;;;;;5078534;28;20024;-73
2023/04/24 11:32:39;;;;;;;1.08;0.28;;;11.80;99.90;;;;;;5077966;28;20082;-73
2023/04/24 11:35:06;;;;;;;0.65;0.30;;;11.90;99.90;;;;;;5078631;28;20036;-73
2023/04/24 11:37:45;;;;;;;3.10;0.40;;;11.80;99.90;;;;;;5077719;28;20017;-72
2023/04/24 11:40:13;;;;;;;0.30;0.30;;;11.80;99.90;;;;;;5077558;28;20029;-72
2023/04/24 11:42:43;;;;;;;3.22;0.35;;;11.80;99.90;;;;;;5078278;28;20052;-72
2023/04/24 11:45:23;;;;;;;0.20;0.20;;;11.80;99.90;;;;;;5134840;22;20056;-68
2023/04/24 11:47:49;;;;;;;1.10;0.10;;;11.90;99.90;;;;;;5098536;28;20028;-69
2023/04/24 11:50:17;;;;;;;0.20;0.20;;;12.00;99.90;;;;;;5097496;28;20034;-68
2023/04/24 11:52:45;;;;;;;0.38;0.20;;;12.00;99.90;;;;;;5097586;28;20077;-68
2023/04/24 11:55:16;;;;;;;0.20;0.20;;;12.00;99.90;;;;;;5097533;28;20031;-68
2023/04/24 11:57:56;;;;;;;0.47;0.20;;;12.20;99.90;;;;;;5097830;28;20020;-68
2023/04/24 12:00:27;;;;;;;0.15;0.10;;;12.30;99.90;;;;;;5098777;28;20077;-68
2023/04/24 12:03:05;;;;;;;0.55;0.25;;;12.20;99.90;;;;;;5098401;28;20028;-68
2023/04/24 12:05:31;;;;;;;0.88;0.40;;;12.10;99.90;;;;;;5097456;28;20051;-68
2023/04/24 12:07:56;;;;;;;0.65;0.55;;;12.10;99.90;;;;;;5097365;28;20055;-68
2023/04/24 12:10:24;;;;;;;2.55;0.35;;;12.00;99.90;;;;;;5098069;28;20082;-68
2023/04/24 12:12:51;;;;;;;0.43;0.35;;;11.90;99.90;;;;;;5098431;28;20042;-68
2023/04/24 12:15:17;;;;;;;0.25;0.20;;;11.70;99.90;;;;;;5097091;28;20032;-68
2023/04/24 12:17:43;;;;;;;0.20;0.20;;;11.60;99.90;;;;;;5097068;28;20020;-68
2023/04/24 12:20:10;;;;;;;0.10;0.10;;;11.50;99.90;;;;;;5098329;28;20032;-68
2023/04/24 12:22:54;;;;;;;4.25;1.83;;;11.50;99.90;;;;;;5097242;28;20024;-68
2023/04/24 12:25:21;;;;;;;1.27;0.10;;;11.50;99.90;;;;;;5097069;28;20025;-68
2023/04/24 12:27:53;;;;;;;0.30;0.30;;;11.50;99.90;;;;;;5097208;28;20035;-69
2023/04/24 12:30:19;;;;;;;0.70;0.40;;;11.60;99.90;;;;;;5096995;28;20111;-68
2023/04/24 12:32:47;;;;;;;1.17;0.45;;;11.70;99.90;;;;;;5097826;28;20047;-68
2023/04/24 12:35:14;;;;;;;0.88;0.43;;;11.80;99.90;;;;;;5096611;28;20111;-68
2023/04/24 12:37:42;;;;;;;0.52;0.47;;;12.00;99.90;;;;;;5098333;28;20032;-69
2023/04/24 12:40:10;;;;;;;0.55;0.40;;;12.00;99.90;;;;;;5096753;28;20131;-69
2023/04/24 12:42:42;;;;;;;1.15;0.50;;;12.20;99.90;;;;;;5097725;28;20024;-68
2023/04/24 12:45:07;;;;;;;2.47;0.82;;;12.20;99.90;;;;;;5096628;28;20028;-68